Latest Weather Observations for Wycheproof (CFA)

IDV60801

Issued at 9:02 pm EST Sunday 16 June 2024 (issued every 10 minutes, with the page automatically refreshed every 10 minutes)

About weather observations | Map of weather stations | Latest weather observations for VIC | Other Formats
Station Details ID: 250132 Name: WYCHEPROOF (CFA) Lat: -36.07 Lon: 143.22 Height: 107.0 m

Portable automatic weather stations (PAWS) are operated by other organisations, such as Fire and Emergency Services, and are included here by agreement. Portable stations may be deployed to a location for a short period and their location may be subject to change without notice. Wind observations from these stations are provided from heights of either three (3) or ten (10) metres above ground level (AGL).

Data from the previous 72 hours. | See also: Recent months for locations in Victoria
Date/Time
EST
Temp
°C
App
Temp
°C
Dew
Point
°C
Rel
Hum
%
Delta-T
°C
Wind Press
QNH
hPa
Press
MSL
hPa
Rain since
9am
mm
Dir  Spd
km/h
Gust
km/h
Spd
kts
Gust
kts
16/08:50pm 5.9 3.2 3.6 85 1.0 SSW 7 7 4 4 - - 0.0
16/08:30pm 6.6 3.6 3.9 83 1.2 SSW 9 11 5 6 - - 0.0
16/08:20pm 7.1 3.7 4.0 81 1.3 SSW 11 13 6 7 - - 0.0
16/08:10pm 7.5 4.1 4.2 79 1.4 SSW 11 13 6 7 - - 0.0
16/08:00pm 7.8 4.4 4.2 78 1.6 SSW 11 13 6 7 - - 0.0
16/07:50pm 7.8 4.1 4.2 78 1.6 SSW 13 15 7 8 - - 0.0
16/07:40pm 7.6 3.8 4.1 78 1.5 SSW 13 15 7 8 - - 0.0
16/07:30pm 7.6 4.2 3.9 77 1.6 SSW 11 13 6 7 - - 0.0
16/07:20pm 7.6 5.0 4.1 78 1.5 SSW 7 9 4 5 - - 0.0
16/07:10pm 8.1 5.1 4.2 76 1.7 SSW 9 11 5 6 - - 0.0
16/07:00pm 8.6 5.2 4.2 74 1.9 SSW 11 11 6 6 - - 0.0
16/06:50pm 8.8 5.8 4.3 73 2.0 S 9 11 5 6 - - 0.0
16/06:40pm 9.3 6.0 4.5 72 2.1 SSW 11 13 6 7 - - 0.0
16/06:30pm 9.8 6.1 4.6 70 2.3 SSW 13 13 7 7 - - 0.0
16/06:20pm 10.2 6.1 4.5 68 2.6 SSW 15 17 8 9 - - 0.0
16/06:10pm 10.0 6.7 4.5 68 2.5 SSW 11 11 6 6 - - 0.0
16/06:00pm 10.0 6.4 4.8 70 2.3 S 13 13 7 7 - - 0.0
16/05:50pm 10.0 6.7 4.8 70 2.3 S 11 13 6 7 - - 0.0
16/05:40pm 10.3 7.5 5.0 69 2.4 S 9 9 5 5 - - 0.0
16/05:30pm 10.9 8.1 5.2 68 2.6 SSW 9 11 5 6 - - 0.0
16/05:20pm 11.5 8.4 5.4 66 2.8 S 11 13 6 7 - - 0.0
16/05:10pm 12.0 9.2 5.3 63 3.1 SSW 9 13 5 7 - - 0.0
16/05:00pm 12.6 9.5 5.7 63 3.2 S 11 13 6 7 - - 0.0
16/04:50pm 13.0 9.6 5.8 61 3.4 SSW 13 15 7 8 - - 0.0
16/04:40pm 13.5 9.9 5.2 57 3.9 SSW 13 13 7 7 - - 0.0
16/04:30pm 13.7 9.8 5.2 56 4.0 SSW 15 17 8 9 - - 0.0
16/04:20pm 13.8 9.6 5.5 57 3.9 SSW 17 20 9 11 - - 0.0
16/04:10pm 13.9 9.6 5.3 56 4.1 SSW 17 20 9 11 - - 0.0
16/04:00pm 14.0 9.8 5.7 57 3.9 SSW 17 20 9 11 - - 0.0
16/03:50pm 14.1 9.9 5.7 57 4.0 S 17 19 9 10 - - 0.0
16/03:40pm 14.1 10.0 6.0 58 3.9 SSW 17 19 9 10 - - 0.0
16/03:30pm 14.0 9.4 5.6 57 4.0 SSW 19 20 10 11 - - 0.0
16/03:20pm 14.0 10.1 5.5 56 4.0 SSW 15 19 8 10 - - 0.0
16/03:10pm 14.0 9.8 5.9 58 3.9 SSW 17 19 9 10 - - 0.0
16/03:00pm 13.9 9.7 5.5 57 4.0 SSW 17 22 9 12 - - 0.0
16/02:50pm 13.8 10.0 5.7 58 3.8 S 15 19 8 10 - - 0.0
16/02:40pm 13.7 9.9 5.9 59 3.7 SSW 15 19 8 10 - - 0.0
16/02:30pm 13.6 9.8 5.8 59 3.7 SSW 15 20 8 11 - - 0.0
16/02:20pm 13.4 9.2 5.7 59 3.6 SW 17 19 9 10 - - 0.0
16/02:10pm 13.2 9.0 5.7 60 3.5 SSW 17 20 9 11 - - 0.0
16/02:00pm 13.2 9.8 6.0 61 3.4 SW 13 19 7 10 - - 0.0
16/01:50pm 12.8 9.8 6.2 64 3.1 SW 11 13 6 7 - - 0.0
16/01:40pm 12.4 8.5 5.5 63 3.2 SW 15 17 8 9 - - 0.0
16/01:30pm 12.4 8.6 5.8 64 3.1 SW 15 19 8 10 - - 0.0
16/01:20pm 12.2 8.9 6.2 67 2.8 SW 13 17 7 9 - - 0.0
16/01:10pm 12.3 8.8 5.5 63 3.2 SSW 13 19 7 10 - - 0.0
16/01:00pm 12.1 8.7 6.0 66 2.9 SW 13 15 7 8 - - 0.0
16/12:50pm 11.8 8.0 5.6 66 2.9 SW 15 19 8 10 - - 0.0
16/12:40pm 11.7 8.6 5.7 66 2.8 SSW 11 15 6 8 - - 0.0
16/12:30pm 11.6 8.3 6.3 70 2.5 SW 13 15 7 8 - - 0.0
16/12:20pm 11.4 8.3 5.7 68 2.7 SSW 11 13 6 7 - - 0.0
16/12:10pm 11.1 8.0 5.4 68 2.6 SSW 11 13 6 7 - - 0.0
16/12:00pm 11.2 7.8 5.9 70 2.5 WSW 13 17 7 9 - - 0.0
16/11:50am 11.0 7.6 6.1 72 2.3 WSW 13 13 7 7 - - 0.0
16/11:40am 10.9 7.5 6.1 72 2.2 WSW 13 17 7 9 - - 0.0
16/11:30am 10.6 7.2 5.7 71 2.3 WSW 13 17 7 9 - - 0.0
16/11:20am 10.4 6.9 5.3 70 2.3 WSW 13 17 7 9 - - 0.0
16/11:10am 10.2 7.2 5.8 74 2.0 WSW 11 13 6 7 - - 0.0
16/11:00am 9.9 6.4 5.5 74 2.0 SW 13 15 7 8 - - 0.0
16/10:50am 9.5 6.0 5.3 75 1.9 WSW 13 15 7 8 - - 0.0
16/10:30am 8.8 5.6 5.1 77 1.7 SW 11 15 6 8 - - 0.0
16/10:20am 8.3 4.7 5.2 81 1.4 SW 13 17 7 9 - - 0.0
16/10:10am 7.9 4.2 4.5 79 1.5 SW 13 15 7 8 - - 0.0
16/10:00am 7.5 3.4 4.5 81 1.3 SW 15 17 8 9 - - 0.0
16/09:50am 7.3 3.6 4.4 82 1.3 SW 13 15 7 8 - - 0.0
16/09:40am 6.8 3.1 4.2 83 1.1 SW 13 13 7 7 - - 0.0
16/09:30am 6.4 3.0 3.9 84 1.1 SW 11 13 6 7 - - 0.0
16/09:20am 6.1 3.5 4.0 86 0.9 SW 7 9 4 5 - - 0.0
16/09:10am 5.5 2.4 3.4 86 0.9 SW 9 11 5 6 - - 0.0
16/09:00am 4.9 2.1 3.2 89 0.7 SW 7 9 4 5 - - 0.0
16/08:50am 4.5 1.9 3.1 91 0.6 SW 6 7 3 4 - - 0.0
16/08:40am 4.0 1.1 2.7 91 0.5 SW 7 9 4 5 - - 0.0
16/08:30am 3.5 0.5 2.2 91 0.5 SW 7 9 4 5 - - 0.0
16/08:20am 3.3 0.0 2.2 92 0.4 SSW 9 9 5 5 - - 0.0
16/08:10am 3.0 -0.3 2.3 95 0.3 SSW 9 9 5 5 - - 0.0
16/08:00am 2.6 -0.8 2.0 96 0.2 SSW 9 11 5 6 - - 0.0
16/07:50am 2.1 -1.7 1.7 97 0.2 S 11 13 6 7 - - 0.0
16/07:40am 2.1 -2.1 1.6 96 0.2 S 13 13 7 7 - - 0.0
16/07:30am 2.1 -2.0 2.0 99 0.0 S 13 15 7 8 - - 0.0
16/07:20am 1.9 -1.1 1.8 99 0.0 S 7 11 4 6 - - 0.0
16/07:10am 1.9 -1.5 1.8 99 0.0 SSW 9 11 5 6 - - 0.0
16/07:00am 1.6 -1.9 1.5 99 0.0 SSW 9 9 5 5 - - 0.0
16/06:50am 1.6 -1.5 1.2 97 0.2 SSW 7 9 4 5 - - 0.0
16/06:40am 2.0 -1.4 1.8 99 0.1 SW 9 9 5 5 - - 0.0
16/06:30am 2.0 -1.0 1.8 99 0.1 SSW 7 9 4 5 - - 0.0
16/06:20am 2.0 -1.1 1.6 97 0.2 S 7 9 4 5 - - 0.0
16/06:10am 2.1 -0.9 1.7 97 0.2 S 7 7 4 4 - - 0.0
16/06:00am 2.2 -0.8 1.7 96 0.2 SSW 7 7 4 4 - - 0.0
16/05:50am 2.3 -0.7 1.8 96 0.2 SSW 7 9 4 5 - - 0.0
16/05:40am 2.5 -0.5 1.7 94 0.3 SSW 7 9 4 5 - - 0.0
16/05:30am 2.8 -0.6 2.1 95 0.3 S 9 9 5 5 - - 0.0
16/05:10am 3.0 -0.7 2.3 95 0.3 S 11 11 6 6 - - 0.0
16/05:00am 3.1 -0.2 2.4 95 0.3 SSW 9 11 5 6 - - 0.0
16/04:50am 3.0 -0.7 2.5 96 0.2 S 11 11 6 6 - - 0.0
16/04:40am 3.0 -0.3 2.4 96 0.2 SSW 9 11 5 6 - - 0.0
16/04:30am 3.1 -0.2 2.5 96 0.2 SSW 9 11 5 6 - - 0.0
16/04:20am 3.3 -0.4 2.6 95 0.3 S 11 11 6 6 - - 0.0
16/04:10am 3.3 -0.4 2.6 95 0.3 S 11 11 6 6 - - 0.0
16/04:00am 3.3 0.0 2.6 95 0.3 S 9 11 5 6 - - 0.0
16/03:50am 3.5 0.6 2.6 94 0.4 SSW 7 9 4 5 - - 0.0
16/03:40am 3.9 0.7 2.8 92 0.4 SSW 9 9 5 5 - - 0.0
16/03:30am 4.1 0.9 3.1 93 0.4 SSW 9 11 5 6 - - 0.0
16/03:20am 4.1 0.5 3.2 94 0.4 SSW 11 11 6 6 - - 0.0
16/03:10am 4.2 0.7 3.3 94 0.4 SSW 11 11 6 6 - - 0.0
16/02:50am 4.3 0.8 3.5 94 0.3 SSW 11 11 6 6 - - 0.0
16/02:40am 4.2 0.7 3.6 96 0.2 SSW 11 13 6 7 - - 0.0
16/02:30am 4.2 0.7 3.5 95 0.3 SSW 11 11 6 6 - - 0.0
16/02:20am 4.2 1.1 3.5 95 0.3 SSW 9 11 5 6 - - 0.0
16/02:10am 4.3 1.2 3.4 94 0.4 SSW 9 11 5 6 - - 0.0
16/02:00am 4.4 1.3 3.4 93 0.4 SSW 9 11 5 6 - - 0.0
16/01:50am 4.5 1.4 3.5 93 0.4 SSW 9 11 5 6 - - 0.0
16/01:40am 4.7 1.2 3.6 93 0.5 S 11 11 6 6 - - 0.0
16/01:30am 4.9 1.5 3.8 93 0.5 SSW 11 13 6 7 - - 0.0
16/01:20am 5.2 2.2 3.9 91 0.5 S 9 11 5 6 - - 0.0
16/01:10am 5.4 2.0 4.1 91 0.6 S 11 13 6 7 - - 0.0
16/01:00am 5.6 2.2 4.2 91 0.6 S 11 13 6 7 - - 0.0
16/12:50am 5.7 2.4 4.4 91 0.6 S 11 13 6 7 - - 0.0
16/12:40am 5.8 2.1 4.6 92 0.5 S 13 13 7 7 - - 0.0
16/12:30am 6.0 2.4 4.8 92 0.5 S 13 17 7 9 - - 0.0
16/12:20am 6.0 2.3 4.7 91 0.6 S 13 13 7 7 - - 0.0
16/12:10am 6.1 2.4 4.7 91 0.6 SSW 13 15 7 8 - - 0.0
 
Date/Time
EST
Temp
°C
App
Temp
°C
Dew
Point
°C
Rel
Hum
%
Delta-T
°C
Wind Press
QNH
hPa
Press
MSL
hPa
Rain since
9am
mm
Dir  Spd
km/h
Gust
km/h
Spd
kts
Gust
kts
15/11:50pm 6.3 2.3 4.7 89 0.7 S 15 15 8 8 - - 0.0
15/11:40pm 6.2 2.1 4.5 89 0.7 S 15 15 8 8 - - 0.0
15/11:30pm 6.2 2.1 4.4 88 0.8 S 15 17 8 9 - - 0.0
15/11:20pm 6.1 2.0 4.2 88 0.8 S 15 15 8 8 - - 0.0
15/11:00pm 6.1 2.3 4.0 86 0.9 S 13 13 7 7 - - 0.0
15/10:50pm 6.2 2.8 4.0 86 0.9 S 11 13 6 7 - - 0.0
15/10:40pm 6.6 2.9 4.2 85 1.0 S 13 15 7 8 - - 0.0
15/10:30pm 6.9 2.8 4.3 83 1.1 S 15 15 8 8 - - 0.0
15/10:20pm 7.0 2.9 4.4 83 1.1 S 15 15 8 8 - - 0.0
15/10:10pm 7.3 3.6 4.4 82 1.3 S 13 17 7 9 - - 0.0
15/10:00pm 7.2 3.5 4.4 82 1.2 S 13 15 7 8 - - 0.0
15/09:50pm 6.6 3.3 4.4 86 1.0 S 11 13 6 7 - - 0.0
15/09:40pm 6.7 3.8 4.4 85 1.0 S 9 9 5 5 - - 0.0
15/09:30pm 6.6 4.0 4.4 86 1.0 S 7 9 4 5 - - 0.0
15/09:20pm 6.8 3.9 4.5 85 1.0 S 9 9 5 5 - - 0.0
15/09:10pm 6.9 4.0 4.6 85 1.0 S 9 9 5 5 - - 0.0
15/09:00pm 7.0 4.1 4.7 85 1.0 S 9 9 5 5 - - 0.0
15/08:50pm 7.4 4.9 4.8 83 1.1 S 7 9 4 5 - - 0.0
15/08:40pm 7.8 5.0 5.1 83 1.2 S 9 11 5 6 - - 0.0
15/08:30pm 8.2 5.0 5.2 81 1.3 S 11 11 6 6 - - 0.0
15/08:20pm 8.1 5.3 5.3 82 1.3 S 9 11 5 6 - - 0.0
15/08:10pm 7.9 5.5 5.3 84 1.2 S 7 9 4 5 - - 0.0
15/08:00pm 8.0 5.6 5.4 84 1.2 S 7 9 4 5 - - 0.0
15/07:50pm 8.3 6.0 5.5 82 1.3 S 7 7 4 4 - - 0.0
15/07:40pm 8.7 6.0 5.7 81 1.4 S 9 9 5 5 - - 0.0
15/07:30pm 9.0 6.4 6.0 81 1.4 S 9 9 5 5 - - 0.0
15/07:20pm 9.3 6.7 6.1 80 1.5 S 9 9 5 5 - - 0.0
15/07:10pm 9.4 6.8 6.3 81 1.4 SSE 9 9 5 5 - - 0.0
15/07:00pm 9.6 7.1 6.4 80 1.5 SSE 9 9 5 5 - - 0.0
15/06:50pm 9.6 7.5 6.6 81 1.4 SSE 7 9 4 5 - - 0.0
15/06:40pm 9.0 7.1 6.7 85 1.1 S 6 6 3 3 - - 0.0
15/06:30pm 9.2 7.3 6.7 84 1.2 S 6 6 3 3 - - 0.0
15/06:20pm 9.8 7.9 6.9 82 1.4 S 6 6 3 3 - - 0.0
15/06:10pm 10.3 8.5 7.3 82 1.4 S 6 6 3 3 - - 0.0
15/06:00pm 10.7 9.0 7.5 80 1.5 S 6 6 3 3 - - 0.0
15/05:50pm 11.2 9.5 7.4 77 1.8 S 6 6 3 3 - - 0.0
15/05:40pm 11.8 10.1 7.4 74 2.1 S 6 6 3 3 - - 0.0
15/05:30pm 12.2 10.4 7.3 72 2.4 S 6 6 3 3 - - 0.0
15/05:20pm 12.7 11.3 7.3 69 2.6 S 4 6 2 3 - - 0.0
15/05:10pm 13.2 11.5 7.4 68 2.8 SSE 6 6 3 3 - - 0.0
15/05:00pm 13.6 11.6 7.2 65 3.1 SSE 7 11 4 6 - - 0.0
15/04:50pm 13.8 11.3 6.7 62 3.4 SSE 9 11 5 6 - - 0.0
15/04:40pm 13.9 11.3 7.6 66 3.1 S 11 13 6 7 - - 0.0
15/04:30pm 14.1 11.3 6.8 61 3.6 SSE 11 13 6 7 - - 0.0
15/04:20pm 14.2 11.4 7.1 62 3.5 SSE 11 13 6 7 - - 0.0
15/04:10pm 14.1 11.8 7.5 64 3.3 S 9 11 5 6 - - 0.0
15/04:00pm 14.3 11.3 7.5 63 3.4 S 13 15 7 8 - - 0.0
15/03:50pm 14.7 11.5 6.7 58 3.9 SSE 13 13 7 7 - - 0.0
15/03:40pm 14.7 11.4 6.4 57 4.0 SSE 13 15 7 8 - - 0.0
15/03:30pm 14.8 12.6 7.8 63 3.5 SSE 9 13 5 7 - - 0.0
15/03:20pm 14.8 11.8 5.9 55 4.3 SE 11 13 6 7 - - 0.0
15/03:10pm 14.9 12.3 6.0 55 4.3 SSE 9 11 5 6 - - 0.0
15/03:00pm 14.7 11.4 4.4 50 4.8 SE 11 15 6 8 - - 0.0
15/02:50pm 14.6 11.1 5.4 54 4.4 SE 13 15 7 8 - - 0.0
15/02:40pm 14.5 11.2 6.3 58 4.0 SE 13 15 7 8 - - 0.0
15/02:30pm 14.7 11.8 6.5 58 4.0 ESE 11 13 6 7 - - 0.0
15/02:20pm 14.7 12.3 7.0 60 3.8 ESE 9 15 5 8 - - 0.0
15/02:10pm 14.5 11.8 7.5 63 3.5 ESE 11 15 6 8 - - 0.0
15/02:00pm 14.4 11.4 7.7 64 3.3 SE 13 15 7 8 - - 0.0
15/01:50pm 14.4 11.9 8.4 67 3.0 ESE 11 15 6 8 - - 0.0
15/01:40pm 14.1 11.1 7.5 64 3.3 SE 13 15 7 8 - - 0.0
15/01:30pm 14.0 11.0 7.5 65 3.2 SE 13 15 7 8 - - 0.0
15/01:20pm 14.0 11.0 7.7 66 3.1 SE 13 17 7 9 - - 0.0
15/01:10pm 13.9 10.9 7.9 67 3.0 SE 13 17 7 9 - - 0.0
15/01:00pm 13.7 10.8 8.0 68 2.8 SE 13 17 7 9 - - 0.0
15/12:50pm 13.4 10.0 7.7 68 2.8 SE 15 17 8 9 - - 0.0
15/12:40pm 13.5 10.9 7.6 67 2.9 ESE 11 15 6 8 - - 0.0
15/12:30pm 13.0 9.9 7.4 69 2.7 SE 13 15 7 8 - - 0.0
15/12:20pm 13.0 10.1 8.1 72 2.4 ESE 13 15 7 8 - - 0.0
15/12:10pm 12.7 9.7 7.6 71 2.5 SE 13 15 7 8 - - 0.0
15/12:00pm 12.4 9.4 7.9 74 2.2 SE 13 17 7 9 - - 0.0
15/11:50am 12.2 9.3 8.3 77 1.9 SE 13 13 7 7 - - 0.0
15/11:40am 11.9 9.4 8.0 77 1.9 ESE 11 15 6 8 - - 0.0
15/11:30am 11.3 9.1 7.8 79 1.7 ESE 9 15 5 8 - - 0.0
15/11:20am 10.3 8.0 7.5 83 1.3 ESE 9 13 5 7 - - 0.0
15/11:10am 9.8 7.0 6.8 81 1.4 SE 11 11 6 6 - - 0.0
15/11:00am 9.8 7.4 6.8 81 1.4 SSE 9 11 5 6 - - 0.0
15/10:50am 9.9 7.1 7.0 82 1.4 SSE 11 15 6 8 - - 0.0
15/10:40am 9.7 6.1 6.8 82 1.4 SSE 15 17 8 9 - - 0.0
15/10:30am 9.7 6.5 6.8 82 1.4 SE 13 17 7 9 - - 0.0
15/10:20am 9.5 6.7 6.8 83 1.3 SE 11 13 6 7 - - 0.0
15/10:10am 9.4 6.6 6.9 84 1.2 SSE 11 13 6 7 - - 0.0
15/10:00am 9.3 6.5 6.9 85 1.1 SSE 11 13 6 7 - - 0.0
15/09:50am 9.1 6.7 7.0 87 1.0 SSE 9 11 5 6 - - 0.0
15/09:30am 8.2 6.3 6.9 91 0.6 SSE 6 7 3 4 - - 0.0
15/09:20am 8.1 6.1 6.9 92 0.6 S 7 9 4 5 - - 0.0
15/09:10am 7.9 5.8 6.8 93 0.5 S 7 7 4 4 - - 0.0
15/09:00am 7.8 5.7 6.8 93 0.5 S 7 7 4 4 - - 4.4
15/08:50am 7.7 5.6 6.8 94 0.4 S 7 9 4 5 - - 4.4
15/08:40am 7.6 5.7 6.8 95 0.4 S 6 7 3 4 - - 4.4
15/08:30am 7.6 5.7 6.6 93 0.5 S 6 7 3 4 - - 4.4
15/08:20am 7.5 5.6 6.6 94 0.4 S 6 6 3 3 - - 4.4
15/08:10am 7.5 5.4 6.5 93 0.5 S 7 7 4 4 - - 4.4
15/08:00am 7.5 5.4 6.5 93 0.5 S 7 9 4 5 - - 4.4
15/07:50am 7.5 5.3 6.3 92 0.5 S 7 9 4 5 - - 4.4
15/07:40am 7.5 5.3 6.3 92 0.5 SSE 7 7 4 4 - - 4.4
15/07:30am 7.5 5.3 6.4 93 0.5 SSE 7 7 4 4 - - 4.4
15/07:20am 7.5 5.6 6.5 93 0.5 SSE 6 7 3 4 - - 4.4
15/07:10am 7.5 5.6 6.6 94 0.4 SSE 6 6 3 3 - - 4.4
15/07:00am 7.5 5.6 6.7 95 0.4 SSE 6 6 3 3 - - 4.4
15/06:50am 7.5 5.6 6.8 95 0.3 SSE 6 6 3 3 - - 4.4
15/06:40am 7.5 6.0 6.7 95 0.4 SE 4 6 2 3 - - 4.4
15/06:30am 7.5 6.0 6.7 95 0.4 SE 4 6 2 3 - - 4.4
15/06:20am 7.6 6.1 6.6 93 0.5 SE 4 6 2 3 - - 4.4
15/06:10am 7.6 5.7 6.5 93 0.5 SE 6 7 3 4 - - 4.4
15/06:00am 7.6 5.6 6.4 92 0.6 SE 6 6 3 3 - - 4.4
15/05:50am 7.6 5.4 6.4 92 0.6 SE 7 7 4 4 - - 4.4
15/05:40am 7.6 5.7 6.6 93 0.5 SE 6 7 3 4 - - 4.4
15/05:30am 7.6 5.5 6.6 93 0.5 SE 7 9 4 5 - - 4.4
15/05:20am 7.7 5.6 6.6 93 0.5 SE 7 7 4 4 - - 4.4
15/05:10am 7.7 5.8 6.5 92 0.6 SE 6 7 3 4 - - 4.4
15/05:00am 7.6 5.7 6.7 94 0.4 SE 6 7 3 4 - - 4.4
15/04:50am 7.5 5.6 6.9 96 0.3 ESE 6 6 3 3 - - 4.4
15/04:40am 7.5 5.7 7.0 97 0.2 ESE 6 7 3 4 - - 4.4
15/04:30am 7.5 5.7 7.0 97 0.2 SE 6 7 3 4 - - 4.4
15/04:20am 7.5 5.1 7.1 97 0.2 SE 9 11 5 6 - - 4.4
15/04:00am 7.5 5.2 7.3 99 0.1 SE 9 11 5 6 - - 4.4
15/03:50am 7.5 4.8 7.4 99 0.0 SSE 11 11 6 6 - - 4.4
15/03:40am 7.5 5.2 7.4 99 0.0 SSE 9 11 5 6 - - 4.4
15/03:30am 7.5 5.2 7.4 99 0.0 SSE 9 9 5 5 - - 4.4
15/03:10am 7.5 5.6 7.4 99 0.0 SSE 7 9 4 5 - - 4.4
15/03:00am 7.5 5.6 7.5 100 0.0 SE 7 9 4 5 - - 4.4
15/02:50am 7.4 5.5 7.4 100 0.0 SE 7 9 4 5 - - 4.4
15/02:30am 7.4 5.5 7.4 100 0.0 ESE 7 9 4 5 - - 4.4
15/02:20am 7.4 5.7 7.4 100 0.0 ESE 6 7 3 4 - - 4.4
15/02:10am 7.4 5.7 7.4 100 0.0 ESE 6 9 3 5 - - 4.4
15/02:00am 7.5 5.6 7.4 99 0.0 ESE 7 9 4 5 - - 4.4
15/01:50am 7.5 5.2 7.4 99 0.0 SE 9 11 5 6 - - 4.4
15/01:40am 7.5 5.6 7.4 99 0.0 ESE 7 9 4 5 - - 4.4
15/01:30am 7.5 5.6 7.5 100 0.0 ESE 7 9 4 5 - - 4.4
15/01:20am 7.5 5.6 7.5 100 0.0 ESE 7 9 4 5 - - 4.4
15/01:10am 7.5 5.2 7.5 100 0.0 ESE 9 11 5 6 - - 4.4
15/01:00am 7.5 5.2 7.5 100 0.0 ESE 9 11 5 6 - - 4.4
15/12:50am 7.6 5.3 7.6 100 0.0 ESE 9 11 5 6 - - 4.4
15/12:40am 7.6 5.7 7.6 100 0.0 ESE 7 11 4 6 - - 4.4
15/12:30am 7.6 5.7 7.6 100 0.0 ESE 7 9 4 5 - - 4.4
15/12:20am 7.6 5.3 7.6 100 0.0 ESE 9 13 5 7 - - 4.4
15/12:10am 7.7 5.4 7.6 99 0.0 ESE 9 9 5 5 - - 4.4
15/12:00am 7.7 5.5 7.7 100 0.0 ESE 9 11 5 6 - - 4.4
 
Date/Time
EST
Temp
°C
App
Temp
°C
Dew
Point
°C
Rel
Hum
%
Delta-T
°C
Wind Press
QNH
hPa
Press
MSL
hPa
Rain since
9am
mm
Dir  Spd
km/h
Gust
km/h
Spd
kts
Gust
kts
14/11:50pm 7.7 5.5 7.7 100 0.0 ESE 9 11 5 6 - - 4.4
14/11:40pm 7.8 5.6 7.7 99 0.0 ESE 9 9 5 5 - - 4.4
14/11:30pm 7.8 5.6 7.8 100 0.0 - 9 11 5 6 - - 4.2
14/11:20pm 7.8 5.6 7.8 100 0.0 E 9 11 5 6 - - 4.2
14/11:10pm 7.8 5.6 7.8 100 0.0 E 9 11 5 6 - - 4.2
14/11:00pm 7.8 6.0 7.8 100 0.0 E 7 11 4 6 - - 4.2
14/10:50pm 7.8 6.0 7.8 100 0.0 E 7 9 4 5 - - 4.2
14/10:40pm 7.8 6.0 7.8 100 0.0 E 7 9 4 5 - - 4.2
14/10:30pm 7.8 6.0 7.8 100 0.0 E 7 9 4 5 - - 4.2
14/10:20pm 7.8 6.0 7.8 100 0.0 E 7 7 4 4 - - 4.2
14/10:10pm 7.8 6.0 7.8 100 0.0 - 7 7 4 4 - - 4.2
14/10:00pm 7.8 5.6 7.7 99 0.0 E 9 11 5 6 - - 4.2
14/09:40pm 7.7 5.5 7.7 100 0.0 E 9 11 5 6 - - 4.2
14/09:30pm 7.7 5.1 7.7 100 0.0 E 11 15 6 8 - - 4.2
14/09:20pm 7.7 5.1 7.6 99 0.0 E 11 13 6 7 - - 4.2
14/09:10pm 7.7 5.1 7.6 99 0.0 E 11 13 6 7 - - 4.2
14/09:00pm 7.7 4.7 7.7 100 0.0 E 13 15 7 8 - - 4.2
14/08:50pm 7.7 4.7 7.7 100 0.0 E 13 17 7 9 - - 4.0
14/08:40pm 7.7 4.7 7.7 100 0.0 E 13 13 7 7 - - 4.0
14/08:30pm 7.7 4.7 7.7 100 0.0 E 13 15 7 8 - - 4.0
14/08:20pm 7.7 5.1 7.7 100 0.0 E 11 13 6 7 - - 3.8
14/08:10pm 7.8 5.2 7.7 99 0.0 E 11 11 6 6 - - 3.6
14/08:00pm 7.8 5.6 7.8 100 0.0 E 9 11 5 6 - - 3.6
14/07:50pm 7.8 5.2 7.8 100 0.0 E 11 13 6 7 - - 3.4
14/07:40pm 7.8 5.2 7.7 99 0.0 E 11 13 6 7 - - 3.2
14/07:30pm 7.8 5.2 7.8 100 0.0 E 11 11 6 6 - - 3.2
14/07:20pm 7.8 5.6 7.7 99 0.0 E 9 11 5 6 - - 3.2
14/07:10pm 7.9 5.7 7.7 99 0.1 E 9 11 5 6 - - 3.0
14/07:00pm 7.9 5.3 7.7 99 0.1 E 11 11 6 6 - - 2.8
14/06:50pm 7.9 5.3 7.6 98 0.1 E 11 13 6 7 - - 2.8
14/06:40pm 7.9 5.3 7.6 98 0.1 E 11 13 6 7 - - 2.8
14/06:30pm 7.9 5.2 7.5 97 0.2 E 11 17 6 9 - - 2.8
14/06:20pm 7.9 5.3 7.6 98 0.1 E 11 13 6 7 - - 2.8
14/06:10pm 7.9 4.8 7.4 97 0.2 E 13 15 7 8 - - 2.8
14/06:00pm 7.9 4.9 7.5 97 0.2 E 13 17 7 9 - - 2.8
14/05:50pm 8.0 5.0 7.7 98 0.1 E 13 15 7 8 - - 2.8
14/05:40pm 8.0 5.4 7.7 98 0.1 E 11 13 6 7 - - 2.6
14/05:30pm 8.1 5.9 7.8 98 0.1 E 9 11 5 6 - - 2.6
14/05:20pm 8.1 5.5 7.7 97 0.2 E 11 13 6 7 - - 2.6
14/05:10pm 8.1 5.1 7.6 97 0.2 E 13 15 7 8 - - 2.6
14/05:00pm 8.1 5.1 7.8 98 0.1 E 13 15 7 8 - - 2.4
14/04:50pm 8.2 5.6 7.9 98 0.1 E 11 13 6 7 - - 2.4
14/04:40pm 8.3 6.1 8.0 98 0.1 E 9 11 5 6 - - 2.4
14/04:30pm 8.3 5.7 7.8 97 0.2 E 11 11 6 6 - - 2.2
14/04:20pm 8.4 5.8 7.6 95 0.4 ENE 11 13 6 7 - - 2.2
14/04:10pm 8.5 5.8 7.5 93 0.5 ENE 11 13 6 7 - - 2.0
14/04:00pm 8.6 6.3 7.6 93 0.5 ENE 9 11 5 6 - - 1.8
14/03:50pm 8.6 5.9 7.4 92 0.6 ENE 11 11 6 6 - - 1.8
14/03:40pm 8.7 5.9 7.1 90 0.8 ENE 11 13 6 7 - - 1.4
14/03:30pm 8.8 6.0 7.0 88 0.8 ENE 11 15 6 8 - - 1.2
14/03:20pm 8.8 5.2 6.6 86 1.0 E 15 19 8 10 - - 1.0
14/03:10pm 9.0 5.0 6.6 85 1.1 E 17 19 9 10 - - 0.8
14/03:00pm 9.1 5.5 6.8 85 1.1 E 15 17 8 9 - - 0.6
14/02:50pm 9.1 5.5 6.8 85 1.1 E 15 17 8 9 - - 0.6
14/02:40pm 9.1 5.6 7.0 87 1.0 E 15 19 8 10 - - 0.6
14/02:30pm 9.1 5.5 6.8 85 1.1 E 15 19 8 10 - - 0.6
14/02:20pm 9.1 5.5 6.8 85 1.1 E 15 19 8 10 - - 0.6
14/02:10pm 9.1 5.9 7.0 87 1.0 E 13 15 7 8 - - 0.6
14/02:00pm 9.0 5.0 6.8 86 1.0 E 17 19 9 10 - - 0.6
14/01:50pm 9.0 5.0 6.7 85 1.1 E 17 20 9 11 - - 0.4
14/01:40pm 9.0 5.0 6.5 84 1.2 E 17 19 9 10 - - 0.4
14/01:30pm 9.1 5.0 6.3 82 1.3 E 17 19 9 10 - - 0.2
14/01:20pm 9.2 5.1 6.3 82 1.3 E 17 19 9 10 - - 0.2
14/01:10pm 9.2 5.1 6.4 83 1.3 ENE 17 19 9 10 - - 0.2
14/01:00pm 9.2 5.2 6.5 83 1.3 ENE 17 19 9 10 - - 0.2
14/12:50pm 9.1 5.4 6.4 83 1.3 ENE 15 19 8 10 - - 0.2
14/12:40pm 9.0 4.9 6.2 82 1.3 E 17 19 9 10 - - 0.2
14/12:30pm 9.0 5.3 6.2 82 1.3 E 15 19 8 10 - - 0.2
14/12:20pm 8.9 5.2 6.4 84 1.2 E 15 19 8 10 - - 0.2
14/12:10pm 8.8 5.2 6.9 88 0.9 E 15 17 8 9 - - 0.2
14/12:00pm 8.5 5.7 6.9 90 0.7 E 11 15 6 8 - - 0.2
14/11:50am 8.3 5.5 7.0 91 0.6 E 11 13 6 7 - - 0.2
14/11:40am 8.3 5.5 7.1 92 0.6 ENE 11 13 6 7 - - 0.2
14/11:30am 8.1 5.3 7.0 93 0.5 E 11 13 6 7 - - 0.2
14/11:20am 8.1 5.3 7.1 93 0.5 E 11 13 6 7 - - 0.2
14/11:00am 8.0 5.2 7.1 94 0.4 E 11 11 6 6 - - 0.2
14/10:50am 7.9 5.1 7.1 95 0.4 E 11 13 6 7 - - 0.2
14/10:40am 7.8 5.0 7.1 95 0.3 E 11 13 6 7 - - 0.2
14/10:30am 7.7 4.6 7.1 96 0.3 E 13 15 7 8 - - 0.2
14/10:20am 7.7 4.6 7.2 97 0.2 E 13 15 7 8 - - 0.2
14/10:10am 7.5 4.4 7.2 98 0.1 ENE 13 15 7 8 - - 0.2
14/10:00am 7.4 4.3 7.3 99 0.0 E 13 15 7 8 - - 0.2
14/09:50am 7.3 4.2 7.3 100 0.0 E 13 15 7 8 - - 0.2
14/09:40am 7.2 4.5 7.2 100 0.0 E 11 13 6 7 - - 0.2
14/09:30am 7.2 4.8 7.1 99 0.0 E 9 11 5 6 - - 0.2
14/09:20am 7.0 4.6 7.0 100 0.0 E 9 11 5 6 - - 0.0
14/09:00am 6.7 3.8 6.7 100 0.0 E 11 15 6 8 - - 5.0
14/08:50am 6.7 4.2 6.7 100 0.0 E 9 11 5 6 - - 4.6
14/08:40am 6.6 4.1 6.6 100 0.0 ESE 9 9 5 5 - - 4.4
14/08:30am 6.6 4.5 6.6 100 0.0 E 7 7 4 4 - - 4.0
14/08:20am 6.7 4.8 6.7 100 0.0 ESE 6 6 3 3 - - 3.8
14/08:10am 6.7 5.2 6.6 99 0.0 E 4 6 2 3 - - 3.0
14/08:00am 6.6 4.7 6.6 100 0.0 E 6 6 3 3 - - 3.0
14/07:50am 6.6 4.7 6.6 100 0.0 ESE 6 6 3 3 - - 2.8
14/07:40am 6.6 4.7 6.6 100 0.0 ESE 6 6 3 3 - - 2.4
14/07:30am 6.6 4.7 6.5 99 0.0 ESE 6 6 3 3 - - 2.2
14/07:20am 6.6 4.7 6.5 99 0.0 ESE 6 7 3 4 - - 2.0
14/07:00am 6.6 4.4 6.3 98 0.1 SE 7 11 4 6 - - 1.6
14/06:50am 6.6 4.0 6.1 97 0.2 SE 9 9 5 5 - - 1.6
14/06:40am 6.7 4.5 6.0 95 0.3 SE 7 9 4 5 - - 1.4
14/06:30am 6.8 4.2 6.0 95 0.4 SE 9 11 5 6 - - 1.2
14/06:20am 6.8 4.2 6.0 95 0.4 SE 9 11 5 6 - - 1.0
14/06:10am 6.7 4.7 6.1 96 0.3 SE 6 7 3 4 - - 1.0
14/06:00am 6.6 4.5 6.0 96 0.3 ESE 6 7 3 4 - - 0.8
14/05:50am 6.5 4.4 5.8 95 0.3 ESE 6 6 3 3 - - 0.8
14/05:40am 6.4 4.3 5.7 95 0.3 ESE 6 6 3 3 - - 0.8
14/05:30am 6.4 4.2 5.5 94 0.4 ESE 6 6 3 3 - - 0.8
14/05:20am 6.4 4.6 5.3 93 0.5 E 4 6 2 3 - - 0.6
14/05:10am 6.5 4.6 5.1 91 0.6 E 4 4 2 2 - - 0.4
14/05:00am 6.5 4.6 4.9 89 0.7 E 4 6 2 3 - - 0.0
14/04:50am 6.4 4.5 4.7 89 0.7 E 4 6 2 3 - - 0.0
14/04:30am 6.0 4.1 4.7 91 0.6 ENE 4 6 2 3 - - 0.0
14/04:20am 6.1 4.5 4.6 90 0.7 ENE 2 4 1 2 - - 0.0
14/04:10am 6.2 4.6 4.6 89 0.7 SSW 2 2 1 1 - - 0.0
14/04:00am 6.3 4.7 4.7 89 0.7 N 2 2 1 1 - - 0.0
14/03:50am 6.4 4.8 4.7 89 0.7 ENE 2 4 1 2 - - 0.0
14/03:40am 6.4 4.5 4.7 89 0.7 SE 4 6 2 3 - - 0.0
14/03:30am 6.3 4.0 4.7 89 0.7 SSE 6 7 3 4 - - 0.0
14/03:20am 6.2 3.7 4.7 90 0.7 S 7 7 4 4 - - 0.0
14/03:10am 6.1 3.8 4.9 92 0.5 SSE 6 7 3 4 - - 0.0
14/03:00am 5.7 3.5 5.1 96 0.3 SSE 6 7 3 4 - - 0.0
14/02:50am 5.5 3.6 4.9 96 0.3 S 4 4 2 2 - - 0.0
14/02:40am 5.3 3.8 4.8 97 0.2 SSE 2 4 1 2 - - 0.0
14/02:30am 5.2 3.6 4.7 97 0.2 ESE 2 2 1 1 - - 0.0
14/02:20am 5.1 3.5 4.5 96 0.3 ENE 2 4 1 2 - - 0.0
14/02:10am 5.1 3.8 4.2 94 0.4 CALM 0 2 0 1 - - 0.0
14/02:00am 5.2 3.6 4.4 95 0.3 NE 2 2 1 1 - - 0.0
14/01:50am 5.3 3.7 4.4 94 0.4 ENE 2 2 1 1 - - 0.0
14/01:40am 5.1 3.4 4.0 93 0.5 NNE 2 2 1 1 - - 0.0
14/01:30am 5.3 3.6 3.9 91 0.6 N 2 4 1 2 - - 0.0
14/01:20am 5.7 3.7 4.3 91 0.6 N 4 4 2 2 - - 0.0
14/01:10am 6.1 4.5 4.4 89 0.7 NNE 2 4 1 2 - - 0.0
14/01:00am 6.5 4.9 4.7 88 0.8 E 2 4 1 2 - - 0.0
14/12:50am 6.7 4.8 4.8 88 0.8 E 4 4 2 2 - - 0.0
14/12:40am 6.8 4.9 4.7 86 0.9 E 4 4 2 2 - - 0.0
14/12:30am 7.0 5.1 4.8 86 1.0 ENE 4 4 2 2 - - 0.0
14/12:20am 7.0 5.1 4.8 86 1.0 NE 4 4 2 2 - - 0.0
14/12:10am 6.9 5.0 4.9 87 0.9 E 4 4 2 2 - - 0.0
14/12:00am 6.9 5.0 5.0 88 0.8 E 4 6 2 3 - - 0.0
 
Date/Time
EST
Temp
°C
App
Temp
°C
Dew
Point
°C
Rel
Hum
%
Delta-T
°C
Wind Press
QNH
hPa
Press
MSL
hPa
Rain since
9am
mm
Dir  Spd
km/h
Gust
km/h
Spd
kts
Gust
kts
13/11:50pm 6.9 5.0 5.0 88 0.8 E 4 4 2 2 - - 0.0
13/11:40pm 6.8 5.3 4.9 88 0.8 SE 2 4 1 2 - - 0.0
13/11:30pm 6.8 5.3 4.9 88 0.8 SSE 2 4 1 2 - - 0.0
13/11:20pm 6.9 5.4 4.9 87 0.9 SSW 2 4 1 2 - - 0.0
13/11:10pm 7.0 5.5 5.1 88 0.8 WSW 2 2 1 1 - - 0.0
13/11:00pm 7.2 5.7 5.1 86 0.9 W 2 4 1 2 - - 0.0
13/10:50pm 7.3 5.8 5.2 86 0.9 WSW 2 2 1 1 - - 0.0
13/10:40pm 7.5 5.6 5.1 85 1.1 SSW 4 4 2 2 - - 0.0
13/10:30pm 7.6 6.1 5.2 85 1.1 SSW 2 4 1 2 - - 0.0
13/10:20pm 7.8 6.7 5.2 84 1.2 CALM 0 0 0 0 - - 0.0
13/10:10pm 8.0 6.9 5.1 82 1.3 CALM 0 2 0 1 - - 0.0
13/10:00pm 8.0 6.5 5.1 82 1.3 NNE 2 2 1 1 - - 0.0
13/09:50pm 8.1 6.6 4.9 80 1.4 E 2 2 1 1 - - 0.0
13/09:40pm 8.1 6.2 4.9 80 1.4 E 4 4 2 2 - - 0.0
13/09:30pm 8.1 6.6 5.1 81 1.3 NE 2 2 1 1 - - 0.0
13/09:20pm 8.2 6.7 5.1 81 1.4 NNE 2 4 1 2 - - 0.0
13/09:10pm 8.2 6.7 5.1 81 1.4 ENE 2 4 1 2 - - 0.0

Other formats

Comma delimited format used in spreadsheet applications
http://www.bom.gov.au/fwo/IDV60801/IDV60801.99815.axf

JavaScript Object Notation format (JSON) in row-major order
http://www.bom.gov.au/fwo/IDV60801/IDV60801.99815.json

Data quality

Most of these data are generated automatically and are frequently updated. Quality checks on data are not normally performed. It is possible for incorrect values to appear. Refer to information at About Latest Weather Observations and please check the disclaimer before using these data.